Time;durP1;ratioP1;P1;durP2;ratioP2;P2;SDS_P1;SDS_P2;PMS_P1;PMS_P2;Temp;Humidity;BMP_temperature;BMP_pressure;BME280_temperature;BME280_humidity;BME280_pressure;Samples;Min_cycle;Max_cycle;Signal;HPM_P1;HPM_P2
2022/03/27 00:01:53;;;;;;;8.05;6.00;;;5.30;78.40;;;;;;5028530;28;20192;-76
2022/03/27 00:04:19;;;;;;;8.32;6.63;;;5.30;79.50;;;;;;5032623;28;20041;-76
2022/03/27 00:06:45;;;;;;;10.02;6.05;;;5.30;78.70;;;;;;5032231;28;20376;-76
2022/03/27 00:09:11;;;;;;;5.90;5.30;;;5.40;78.70;;;;;;5025451;28;20040;-76
2022/03/27 00:11:38;;;;;;;10.15;5.93;;;5.40;78.80;;;;;;5031376;28;20034;-76
2022/03/27 00:14:05;;;;;;;8.20;6.80;;;5.40;79.00;;;;;;5027667;28;20040;-76
2022/03/27 00:16:33;;;;;;;8.48;7.22;;;5.30;80.00;;;;;;5032907;28;20063;-76
2022/03/27 00:19:00;;;;;;;8.85;8.02;;;5.30;80.00;;;;;;5031595;28;20033;-76
2022/03/27 00:21:27;;;;;;;8.05;7.20;;;5.20;80.50;;;;;;5033249;28;20025;-76
2022/03/27 00:23:54;;;;;;;7.88;7.18;;;5.10;81.20;;;;;;5011344;28;20064;-76
2022/03/27 00:26:21;;;;;;;13.02;6.85;;;5.00;82.00;;;;;;5029040;28;20056;-77
2022/03/27 00:28:48;;;;;;;10.48;7.72;;;4.90;82.70;;;;;;5026603;28;20033;-77
2022/03/27 00:31:16;;;;;;;10.15;7.25;;;5.00;83.50;;;;;;5039612;28;20030;-79
2022/03/27 00:33:43;;;;;;;8.18;7.07;;;4.90;83.60;;;;;;5036156;28;20036;-77
2022/03/27 00:36:13;;;;;;;9.60;7.43;;;4.90;84.10;;;;;;5040933;28;20056;-77
2022/03/27 00:38:40;;;;;;;12.23;7.00;;;4.90;84.30;;;;;;5037284;28;20530;-77
2022/03/27 00:41:08;;;;;;;11.75;8.35;;;4.90;85.00;;;;;;5032339;28;20025;-76
2022/03/27 00:43:35;;;;;;;8.52;7.60;;;4.90;85.30;;;;;;5037435;28;20386;-76
2022/03/27 00:46:02;;;;;;;21.13;7.75;;;4.80;86.30;;;;;;5031423;28;20036;-76
2022/03/27 00:48:28;;;;;;;9.88;7.25;;;4.80;86.50;;;;;;5031812;28;20493;-77
2022/03/27 00:50:55;;;;;;;8.13;7.18;;;4.80;87.00;;;;;;5025993;28;20042;-76
2022/03/27 00:53:21;;;;;;;10.73;8.18;;;4.80;87.70;;;;;;5031928;28;20344;-76
2022/03/27 00:55:48;;;;;;;9.13;7.35;;;4.70;88.70;;;;;;5032077;28;20379;-78
2022/03/27 00:58:16;;;;;;;17.90;8.35;;;4.70;89.80;;;;;;5030148;28;20402;-77
2022/03/27 01:00:56;;;;;;;17.42;8.32;;;4.80;90.40;;;;;;5013592;28;20041;-78
2022/03/27 01:03:26;;;;;;;14.43;7.47;;;4.90;90.60;;;;;;5030540;28;20474;-76
2022/03/27 01:05:53;;;;;;;17.45;8.48;;;4.90;90.40;;;;;;5030980;28;20391;-77
2022/03/27 01:11:16;;;;;;;8.63;7.70;;;5.00;90.10;;;;;;5027351;28;20033;-77
2022/03/27 01:14:03;;;;;;;9.13;7.78;;;5.00;90.10;;;;;;5027670;28;20379;-77
2022/03/27 01:16:41;;;;;;;8.93;7.63;;;5.00;90.50;;;;;;5029096;28;20033;-81
2022/03/27 01:19:10;;;;;;;9.30;7.10;;;5.00;90.40;;;;;;5013596;28;20041;-77
2022/03/27 01:21:40;;;;;;;8.48;7.68;;;4.90;90.60;;;;;;5028569;28;20037;-76
2022/03/27 01:24:09;;;;;;;13.18;9.05;;;4.90;90.90;;;;;;5029878;28;20364;-76
2022/03/27 01:26:37;;;;;;;14.45;8.63;;;4.80;91.10;;;;;;5036616;28;20049;-76
2022/03/27 01:29:04;;;;;;;11.35;8.70;;;4.80;91.50;;;;;;5037323;28;20048;-76
2022/03/27 01:31:31;;;;;;;10.88;8.45;;;4.70;91.90;;;;;;5030312;28;20041;-78
2022/03/27 01:33:57;;;;;;;11.95;8.18;;;4.70;92.20;;;;;;5012114;28;20045;-76
2022/03/27 01:36:28;;;;;;;11.07;8.25;;;4.60;92.70;;;;;;5032818;28;20040;-76
2022/03/27 01:38:55;;;;;;;;;;;4.60;93.20;;;;;;5032871;28;20036;-76
2022/03/27 01:41:22;;;;;;;11.93;7.43;;;4.50;93.40;;;;;;5038345;28;20230;-76
2022/03/27 01:43:48;;;;;;;8.77;7.93;;;4.40;93.70;;;;;;5037722;28;20489;-76
2022/03/27 01:46:15;;;;;;;11.88;8.35;;;4.40;94.30;;;;;;5038471;28;20037;-76
2022/03/27 01:48:42;;;;;;;9.07;8.27;;;4.30;94.60;;;;;;5036891;28;20362;-76
2022/03/27 01:51:08;;;;;;;9.98;8.07;;;4.20;95.50;;;;;;5038631;28;20125;-76
2022/03/27 01:53:39;;;;;;;16.20;8.57;;;4.10;96.20;;;;;;5037908;28;20033;-78
2022/03/27 01:56:07;;;;;;;8.40;7.57;;;4.10;97.40;;;;;;5036824;28;20040;-76
2022/03/27 01:58:38;;;;;;;11.65;7.72;;;4.10;97.50;;;;;;5033610;28;20037;-76
2022/03/27 02:01:06;;;;;;;;;;;4.10;97.60;;;;;;5038577;28;20045;-76
2022/03/27 02:03:32;;;;;;;10.00;8.55;;;4.20;97.60;;;;;;5020464;28;19920;-76
2022/03/27 02:05:58;;;;;;;13.80;8.55;;;4.30;96.70;;;;;;5038180;28;20467;-76
2022/03/27 02:08:24;;;;;;;8.75;7.82;;;4.40;96.60;;;;;;5030824;28;20036;-76
2022/03/27 02:10:51;;;;;;;11.60;8.60;;;4.40;95.80;;;;;;5019576;28;20387;-76
2022/03/27 02:13:18;;;;;;;11.52;8.77;;;4.40;95.40;;;;;;5039417;28;20034;-76
2022/03/27 02:15:46;;;;;;;12.10;8.10;;;4.40;95.30;;;;;;5038181;28;20029;-77
2022/03/27 02:18:14;;;;;;;10.18;8.43;;;4.40;95.30;;;;;;5043476;28;20044;-78
2022/03/27 02:20:40;;;;;;;8.43;7.57;;;4.30;95.60;;;;;;5037623;28;20021;-76
2022/03/27 02:23:07;;;;;;;10.50;8.75;;;4.20;95.80;;;;;;5036353;28;20029;-76
2022/03/27 02:25:34;;;;;;;10.20;8.05;;;4.20;96.40;;;;;;5038152;28;20041;-77
2022/03/27 02:28:00;;;;;;;10.95;8.40;;;4.10;97.20;;;;;;5036223;28;20474;-77
2022/03/27 02:30:26;;;;;;;9.73;8.73;;;4.10;97.80;;;;;;5019590;28;20041;-77
2022/03/27 02:32:53;;;;;;;9.00;8.15;;;3.90;98.50;;;;;;5036175;28;20038;-77
2022/03/27 02:35:19;;;;;;;10.18;8.95;;;3.90;99.40;;;;;;5025894;28;20037;-76
2022/03/27 02:37:45;;;;;;;9.80;8.55;;;3.80;99.90;;;;;;5016499;28;20037;-76
2022/03/27 02:40:12;;;;;;;9.05;8.23;;;3.70;99.90;;;;;;5033790;28;20034;-76
2022/03/27 02:42:38;;;;;;;10.90;9.10;;;3.60;99.90;;;;;;5034420;28;20030;-76
2022/03/27 02:45:05;;;;;;;9.00;8.10;;;3.60;99.90;;;;;;5034956;28;20044;-76
2022/03/27 02:47:34;;;;;;;11.98;7.93;;;3.60;99.90;;;;;;5034332;28;20041;-77
2022/03/27 02:50:04;;;;;;;9.60;8.70;;;3.70;99.90;;;;;;5033701;28;20037;-76
2022/03/27 02:52:30;;;;;;;9.18;8.35;;;3.60;99.90;;;;;;5033989;28;20046;-77
2022/03/27 02:54:58;;;;;;;12.90;8.82;;;3.60;99.90;;;;;;5033895;28;20044;-76
2022/03/27 02:57:25;;;;;;;10.05;8.93;;;3.60;99.90;;;;;;5032257;28;20050;-76
2022/03/27 02:59:52;;;;;;;11.80;9.00;;;3.50;99.90;;;;;;5033456;28;20033;-77
2022/03/27 03:02:20;;;;;;;10.23;8.60;;;3.50;99.90;;;;;;5030633;28;20033;-77
2022/03/27 03:04:46;;;;;;;11.82;9.18;;;3.50;99.90;;;;;;5026902;28;20033;-77
2022/03/27 03:07:14;;;;;;;11.65;9.63;;;3.60;99.90;;;;;;5034096;28;20041;-77
2022/03/27 03:09:41;;;;;;;11.60;8.60;;;3.70;99.90;;;;;;5030857;28;20052;-77
2022/03/27 03:12:08;;;;;;;11.52;9.27;;;3.70;99.90;;;;;;5016380;28;20044;-76
2022/03/27 03:14:34;;;;;;;12.90;8.45;;;3.70;99.90;;;;;;5025403;28;20033;-76
2022/03/27 03:17:03;;;;;;;11.48;9.35;;;3.70;99.90;;;;;;5029145;28;20033;-76
2022/03/27 03:19:31;;;;;;;10.70;9.23;;;3.70;99.90;;;;;;5030388;28;20481;-82
2022/03/27 03:21:57;;;;;;;10.93;8.13;;;3.60;99.90;;;;;;5031471;28;20030;-76
2022/03/27 03:24:27;;;;;;;10.73;8.68;;;3.60;99.90;;;;;;5030370;28;20034;-76
2022/03/27 03:26:54;;;;;;;9.68;8.70;;;3.50;99.90;;;;;;5030396;28;20060;-76
2022/03/27 03:29:21;;;;;;;14.50;8.70;;;3.60;99.90;;;;;;5031432;28;20037;-76
2022/03/27 03:31:48;;;;;;;11.93;9.57;;;3.50;99.90;;;;;;5031794;28;20055;-79
2022/03/27 03:34:14;;;;;;;12.38;9.82;;;3.40;99.90;;;;;;5029985;28;20363;-76
2022/03/27 03:36:41;;;;;;;13.35;9.93;;;3.40;99.90;;;;;;5032977;28;20037;-77
2022/03/27 03:39:07;;;;;;;11.63;8.98;;;3.40;99.90;;;;;;5035510;28;20044;-76
2022/03/27 03:41:34;;;;;;;15.25;10.40;;;3.30;99.90;;;;;;5031239;28;20041;-77
2022/03/27 03:44:00;;;;;;;10.85;9.10;;;3.20;99.90;;;;;;5033425;28;20040;-76
2022/03/27 03:46:26;;;;;;;9.40;8.50;;;3.20;99.90;;;;;;5024092;28;20025;-76
2022/03/27 03:48:52;;;;;;;12.98;9.18;;;3.20;99.90;;;;;;5030143;28;20030;-76
2022/03/27 03:51:19;;;;;;;13.55;10.85;;;3.10;99.90;;;;;;5033833;28;20038;-78
2022/03/27 03:53:45;;;;;;;12.75;9.27;;;3.10;99.90;;;;;;5027526;28;20385;-76
2022/03/27 03:56:11;;;;;;;22.55;10.45;;;3.10;99.90;;;;;;5033509;28;20033;-76
2022/03/27 03:58:38;;;;;;;11.77;10.68;;;3.00;99.90;;;;;;5031936;28;20041;-76
2022/03/27 04:01:04;;;;;;;13.48;10.48;;;3.00;99.90;;;;;;5033303;28;20044;-77
2022/03/27 04:03:30;;;;;;;13.43;10.75;;;3.00;99.90;;;;;;5032183;28;20364;-79
2022/03/27 04:05:57;;;;;;;16.15;10.65;;;3.10;99.90;;;;;;5033616;28;20037;-78
2022/03/27 04:08:24;;;;;;;11.88;10.70;;;3.10;99.90;;;;;;5013889;28;20117;-76
2022/03/27 04:10:50;;;;;;;13.23;11.20;;;3.00;99.90;;;;;;5033190;28;20049;-76
2022/03/27 04:13:16;;;;;;;12.38;10.65;;;3.10;99.90;;;;;;5015166;28;20056;-76
2022/03/27 04:15:42;;;;;;;12.07;10.98;;;3.10;99.90;;;;;;5032881;28;20056;-76
2022/03/27 04:18:09;;;;;;;22.23;11.32;;;3.10;99.90;;;;;;5031855;28;20033;-76
2022/03/27 04:20:35;;;;;;;12.43;10.32;;;3.10;99.90;;;;;;5032629;28;20044;-76
2022/03/27 04:23:02;;;;;;;12.20;10.55;;;3.00;99.90;;;;;;5034822;28;20382;-76
2022/03/27 04:25:28;;;;;;;13.40;11.00;;;3.00;99.90;;;;;;5013870;28;20057;-78
2022/03/27 04:27:54;;;;;;;19.73;10.88;;;2.90;99.90;;;;;;5032255;28;20041;-78
2022/03/27 04:30:21;;;;;;;16.25;11.02;;;2.90;99.90;;;;;;5026520;28;20463;-78
2022/03/27 04:32:51;;;;;;;12.63;11.30;;;2.90;99.90;;;;;;5025996;28;20052;-78
2022/03/27 04:35:17;;;;;;;17.55;10.20;;;2.90;99.90;;;;;;5032913;28;20033;-78
2022/03/27 04:37:46;;;;;;;15.30;10.93;;;2.90;99.90;;;;;;5026671;28;20033;-79
2022/03/27 04:40:13;;;;;;;16.92;11.52;;;2.80;99.90;;;;;;5030828;28;20030;-78
2022/03/27 04:42:41;;;;;;;11.80;10.70;;;2.80;99.90;;;;;;5032029;28;20029;-78
2022/03/27 04:45:08;;;;;;;15.48;11.57;;;2.70;99.90;;;;;;5032371;28;20048;-80
2022/03/27 04:47:34;;;;;;;15.52;13.40;;;2.70;99.90;;;;;;5032126;28;20041;-82
2022/03/27 04:50:01;;;;;;;15.20;11.63;;;2.80;99.90;;;;;;5031004;28;20045;-79
2022/03/27 04:52:28;;;;;;;13.35;12.13;;;2.70;99.90;;;;;;5035943;28;20034;-80
2022/03/27 04:54:54;;;;;;;14.38;12.93;;;2.70;99.90;;;;;;5020699;28;20037;-77
2022/03/27 04:57:21;;;;;;;12.80;11.55;;;2.60;99.90;;;;;;5041877;28;20030;-78
2022/03/27 04:59:48;;;;;;;20.90;12.88;;;2.60;99.90;;;;;;5022519;28;20037;-78
2022/03/27 05:02:15;;;;;;;15.75;13.07;;;2.50;99.90;;;;;;5031092;28;20033;-78
2022/03/27 05:04:41;;;;;;;20.30;14.98;;;2.50;99.90;;;;;;5032155;28;20025;-78
2022/03/27 05:07:07;;;;;;;19.55;15.23;;;2.60;99.90;;;;;;5032708;28;20382;-77
2022/03/27 05:09:34;;;;;;;16.05;14.27;;;2.60;99.90;;;;;;5026914;28;20482;-76
2022/03/27 05:12:00;;;;;;;16.08;14.23;;;2.60;99.90;;;;;;5029399;28;20422;-79
2022/03/27 05:14:27;;;;;;;19.88;14.80;;;2.60;99.90;;;;;;5026894;28;20378;-78
2022/03/27 05:16:53;;;;;;;16.80;15.18;;;2.60;99.90;;;;;;5024691;28;20033;-78
2022/03/27 05:19:19;;;;;;;19.38;15.05;;;2.70;99.90;;;;;;5027805;28;20036;-78
2022/03/27 05:21:45;;;;;;;16.63;13.13;;;2.80;99.90;;;;;;5025863;28;20048;-78
2022/03/27 05:24:11;;;;;;;19.95;13.80;;;2.80;99.90;;;;;;5031728;28;20034;-78
2022/03/27 05:26:38;;;;;;;18.60;15.25;;;2.80;99.90;;;;;;5028154;28;20056;-78
2022/03/27 05:29:06;;;;;;;16.45;13.90;;;2.90;99.90;;;;;;5029477;28;20033;-78
2022/03/27 05:31:32;;;;;;;15.90;14.13;;;2.90;99.90;;;;;;5031675;28;20040;-78
2022/03/27 05:33:59;;;;;;;16.95;13.02;;;3.00;99.90;;;;;;5013638;28;20033;-79
2022/03/27 05:36:26;;;;;;;19.00;14.98;;;3.00;99.90;;;;;;5029953;28;20030;-79
2022/03/27 05:38:52;;;;;;;23.83;15.93;;;3.10;99.90;;;;;;5028165;28;20049;-76
2022/03/27 05:41:19;;;;;;;16.00;14.38;;;3.10;99.90;;;;;;5033084;28;20044;-80
2022/03/27 05:43:45;;;;;;;16.35;14.25;;;3.20;99.90;;;;;;5029154;28;20390;-78
2022/03/27 05:46:11;;;;;;;17.85;14.60;;;3.30;99.90;;;;;;5013900;28;20056;-75
2022/03/27 05:48:37;;;;;;;16.20;14.60;;;3.30;99.90;;;;;;5030404;28;20033;-76
2022/03/27 05:51:03;;;;;;;16.73;15.02;;;3.40;99.90;;;;;;5031459;28;20410;-78
2022/03/27 05:53:30;;;;;;;19.27;15.35;;;3.50;99.90;;;;;;5031662;28;20037;-80
2022/03/27 05:55:57;;;;;;;18.42;15.05;;;3.80;99.90;;;;;;5013548;28;20042;-75
2022/03/27 05:58:23;;;;;;;16.13;13.98;;;4.80;99.90;;;;;;5028439;28;20530;-77
2022/03/27 06:00:52;;;;;;;15.88;13.38;;;6.00;99.90;;;;;;5008513;28;20041;-75
2022/03/27 06:03:18;;;;;;;18.77;12.25;;;7.30;95.90;;;;;;5028146;28;20029;-75
2022/03/27 06:05:44;;;;;;;12.65;11.50;;;8.20;90.20;;;;;;5030786;28;20041;-76
2022/03/27 06:08:10;;;;;;;11.73;10.48;;;9.10;81.90;;;;;;5028212;28;20045;-76
2022/03/27 06:10:39;;;;;;;14.35;11.63;;;9.80;75.30;;;;;;5027651;28;20036;-77
2022/03/27 06:13:05;;;;;;;13.43;11.23;;;10.40;72.30;;;;;;5028889;28;20037;-78
2022/03/27 06:15:32;;;;;;;13.13;11.73;;;10.90;69.20;;;;;;5017491;28;20037;-78
2022/03/27 06:17:59;;;;;;;10.65;9.60;;;11.40;66.40;;;;;;5016825;28;20044;-79
2022/03/27 06:20:30;;;;;;;12.18;9.63;;;11.60;64.90;;;;;;5033120;28;20044;-77
2022/03/27 06:22:57;;;;;;;13.18;10.15;;;12.00;64.00;;;;;;5030778;28;20467;-75
2022/03/27 06:25:26;;;;;;;11.48;10.10;;;12.50;62.20;;;;;;5031496;28;20493;-75
2022/03/27 06:27:53;;;;;;;12.85;10.50;;;12.60;61.30;;;;;;5034055;28;20048;-77
2022/03/27 06:30:23;;;;;;;11.23;9.32;;;12.20;62.50;;;;;;5033339;28;20037;-76
2022/03/27 06:32:51;;;;;;;13.88;9.93;;;11.60;64.70;;;;;;5011556;28;20042;-77
2022/03/27 06:35:19;;;;;;;10.48;9.40;;;11.60;64.80;;;;;;5035122;28;20030;-75
2022/03/27 06:37:46;;;;;;;14.85;10.95;;;11.60;64.80;;;;;;5032798;28;20475;-76
2022/03/27 06:40:14;;;;;;;13.98;10.20;;;11.60;63.90;;;;;;5032637;28;20053;-75
2022/03/27 06:42:42;;;;;;;11.98;9.88;;;11.00;66.70;;;;;;5033466;28;20029;-76
2022/03/27 06:45:10;;;;;;;12.43;10.43;;;10.60;68.80;;;;;;5032624;28;20034;-75
2022/03/27 06:47:36;;;;;;;17.43;10.03;;;11.00;67.70;;;;;;5028853;28;20029;-76
2022/03/27 06:50:04;;;;;;;15.18;10.55;;;11.50;66.30;;;;;;5030096;28;20041;-76
2022/03/27 06:52:31;;;;;;;11.68;10.23;;;11.40;66.80;;;;;;5028331;28;20037;-75
2022/03/27 06:54:58;;;;;;;13.93;9.93;;;11.60;66.20;;;;;;5034588;28;20025;-75
2022/03/27 06:57:25;;;;;;;11.90;9.45;;;11.80;65.60;;;;;;5033736;28;20060;-76
2022/03/27 07:05:22;;;;;;;13.75;9.90;;;11.70;65.30;;;;;;5024084;28;20030;-77
2022/03/27 07:07:49;;;;;;;12.85;10.07;;;12.10;64.80;;;;;;5027186;28;20360;-76
2022/03/27 07:10:16;;;;;;;12.15;10.05;;;12.20;64.40;;;;;;5026616;28;20040;-75
2022/03/27 07:12:43;;;;;;;14.00;9.55;;;12.20;64.50;;;;;;5027293;28;20363;-76
2022/03/27 07:15:10;;;;;;;12.05;10.48;;;12.30;64.10;;;;;;5028696;28;20026;-82
2022/03/27 07:17:48;;;;;;;11.55;10.25;;;12.20;63.60;;;;;;5031043;28;20030;-77
2022/03/27 07:20:20;;;;;;;11.73;10.23;;;11.90;64.50;;;;;;5033638;28;20570;-76
2022/03/27 07:22:46;;;;;;;12.27;9.77;;;12.00;64.30;;;;;;5032815;28;20471;-77
2022/03/27 07:25:13;;;;;;;12.52;10.15;;;12.30;64.30;;;;;;5031424;28;20045;-79
2022/03/27 07:27:41;;;;;;;12.70;10.00;;;12.50;63.20;;;;;;5032558;28;20056;-76
2022/03/27 07:30:08;;;;;;;15.70;11.98;;;12.40;63.10;;;;;;5015915;28;20048;-76
2022/03/27 07:32:34;;;;;;;12.32;10.30;;;12.80;63.00;;;;;;5030174;28;20033;-77
2022/03/27 07:35:00;;;;;;;12.23;9.23;;;12.70;62.80;;;;;;5012239;28;20042;-76
2022/03/27 07:37:28;;;;;;;12.70;10.43;;;13.20;61.90;;;;;;5013920;28;20033;-77
2022/03/27 07:39:54;;;;;;;17.95;10.25;;;13.40;61.30;;;;;;5025316;28;20033;-76
2022/03/27 07:42:21;;;;;;;11.55;9.77;;;13.40;61.30;;;;;;5029945;28;20175;-77
2022/03/27 07:44:47;;;;;;;15.13;9.85;;;13.30;61.30;;;;;;5032168;28;20033;-75
2022/03/27 07:47:14;;;;;;;10.35;9.23;;;13.70;60.80;;;;;;5033340;28;20029;-76
2022/03/27 07:49:40;;;;;;;11.45;10.00;;;14.30;59.40;;;;;;5027096;28;20048;-75
2022/03/27 07:52:06;;;;;;;12.85;10.52;;;14.30;59.10;;;;;;5039799;28;20030;-76
2022/03/27 07:54:33;;;;;;;13.38;9.80;;;13.90;59.50;;;;;;5032992;28;20041;-76
2022/03/27 07:56:59;;;;;;;12.30;9.38;;;14.00;59.90;;;;;;5020296;28;20372;-76
2022/03/27 07:59:26;;;;;;;10.52;9.45;;;14.50;59.00;;;;;;5030332;28;20052;-75
2022/03/27 08:01:52;;;;;;;9.82;8.50;;;15.50;58.30;;;;;;5020463;28;20030;-75
2022/03/27 08:04:18;;;;;;;13.60;9.25;;;16.10;55.10;;;;;;5032873;28;20052;-76
2022/03/27 08:06:47;;;;;;;9.63;8.60;;;16.60;54.90;;;;;;5032802;28;20037;-76
2022/03/27 08:09:14;;;;;;;11.88;8.80;;;17.00;53.30;;;;;;5037152;28;20076;-82
2022/03/27 08:11:42;;;;;;;10.48;9.40;;;15.80;54.90;;;;;;5029817;28;20049;-76
2022/03/27 08:14:09;;;;;;;11.18;9.02;;;15.90;55.10;;;;;;5014946;28;20044;-76
2022/03/27 08:16:37;;;;;;;13.10;8.70;;;16.10;54.80;;;;;;5028792;28;20033;-77
2022/03/27 08:19:03;;;;;;;18.25;10.75;;;15.70;55.70;;;;;;5032637;28;20052;-77
2022/03/27 08:21:30;;;;;;;12.27;10.05;;;15.80;55.50;;;;;;5031712;28;20033;-80
2022/03/27 08:23:57;;;;;;;11.38;10.18;;;16.50;55.10;;;;;;5033002;28;20041;-80
2022/03/27 08:29:07;;;;;;;15.93;9.90;;;16.80;54.40;;;;;;5028737;28;20069;-78
2022/03/27 08:31:34;;;;;;;11.38;9.82;;;16.80;54.50;;;;;;5013331;28;20048;-85
2022/03/27 08:34:01;;;;;;;12.35;9.70;;;17.80;52.70;;;;;;5032215;28;20041;-79
2022/03/27 08:36:27;;;;;;;14.05;8.82;;;17.40;53.10;;;;;;5032625;28;20393;-78
2022/03/27 08:38:55;;;;;;;10.75;8.88;;;17.50;51.90;;;;;;5028999;28;20247;-79
2022/03/27 08:41:21;;;;;;;11.00;9.23;;;18.20;51.00;;;;;;5027873;28;20026;-79
2022/03/27 08:43:50;;;;;;;13.52;10.65;;;17.60;50.50;;;;;;5030053;28;20021;-79
2022/03/27 08:46:17;;;;;;;10.57;8.95;;;18.30;51.50;;;;;;5032667;28;20048;-77
2022/03/27 08:48:44;;;;;;;15.10;10.80;;;18.60;50.00;;;;;;5033065;28;20459;-78
2022/03/27 08:51:34;;;;;;;9.57;8.57;;;18.80;49.50;;;;;;5027639;28;20033;-79
2022/03/27 08:54:06;;;;;;;12.45;9.88;;;18.80;50.30;;;;;;5027558;28;20037;-78
2022/03/27 08:56:34;;;;;;;10.98;9.20;;;18.80;50.10;;;;;;5025005;28;20040;-78
2022/03/27 08:59:11;;;;;;;11.80;9.43;;;18.90;51.30;;;;;;5030402;28;20037;-76
2022/03/27 09:01:38;;;;;;;11.55;10.30;;;19.30;50.10;;;;;;5025887;28;20466;-80
2022/03/27 09:04:05;;;;;;;11.80;9.27;;;18.80;49.10;;;;;;5030249;28;20033;-75
2022/03/27 09:06:31;;;;;;;12.55;8.25;;;18.90;49.60;;;;;;5030505;28;20025;-78
2022/03/27 09:08:57;;;;;;;11.23;8.05;;;19.80;47.00;;;;;;5025993;28;20036;-75
2022/03/27 09:11:24;;;;;;;10.10;7.80;;;20.10;46.50;;;;;;5018503;28;20045;-76
2022/03/27 09:13:52;;;;;;;10.35;8.68;;;19.90;47.40;;;;;;5036956;28;20029;-75
2022/03/27 09:16:19;;;;;;;11.48;8.48;;;19.70;47.30;;;;;;5035012;28;20029;-76
2022/03/27 09:18:50;;;;;;;10.07;8.65;;;19.50;47.80;;;;;;5042462;28;20052;-76
2022/03/27 09:21:21;;;;;;;8.68;7.63;;;19.30;47.60;;;;;;5035955;28;20044;-78
2022/03/27 09:23:53;;;;;;;8.82;7.85;;;18.70;49.30;;;;;;5032317;28;20040;-78
2022/03/27 09:26:20;;;;;;;11.90;8.13;;;19.00;49.10;;;;;;5002821;28;20049;-77
2022/03/27 09:28:49;;;;;;;13.10;8.18;;;20.00;47.60;;;;;;5023924;28;20419;-78
2022/03/27 09:31:18;;;;;;;8.15;7.32;;;18.90;48.40;;;;;;5032340;28;20060;-77
2022/03/27 09:33:50;;;;;;;7.90;7.07;;;18.40;49.00;;;;;;5027332;28;20036;-78
2022/03/27 09:36:32;;;;;;;11.52;8.77;;;19.80;48.10;;;;;;5025155;28;20292;-79
2022/03/27 09:39:13;;;;;;;13.60;8.73;;;20.20;46.80;;;;;;5032632;28;20042;-78
2022/03/27 09:41:59;;;;;;;10.45;8.45;;;19.50;47.90;;;;;;5027290;28;20463;-80
2022/03/27 09:44:36;;;;;;;10.60;9.50;;;18.90;49.50;;;;;;5031495;28;20151;-80
2022/03/27 09:47:13;;;;;;;12.02;9.23;;;18.80;49.20;;;;;;5038269;28;20463;-80
2022/03/27 09:49:44;;;;;;;10.30;9.02;;;18.80;49.20;;;;;;5030209;28;20067;-80
2022/03/27 09:52:14;;;;;;;18.73;9.27;;;18.40;50.00;;;;;;5034681;28;20034;-79
2022/03/27 09:54:43;;;;;;;;;;;18.20;50.00;;;;;;5035355;28;20033;-79
2022/03/27 09:57:30;;;;;;;13.95;8.57;;;18.70;50.10;;;;;;4997201;28;19914;-79
2022/03/27 10:00:18;;;;;;;11.13;9.27;;;18.40;49.80;;;;;;5024209;28;20041;-79
2022/03/27 10:02:48;;;;;;;10.77;8.93;;;18.20;50.30;;;;;;5035171;28;20052;-78
2022/03/27 10:05:20;;;;;;;10.50;8.45;;;18.50;49.60;;;;;;5034839;28;20040;-77
2022/03/27 10:07:47;;;;;;;11.18;8.98;;;18.70;49.80;;;;;;5033876;28;20382;-78
2022/03/27 10:10:18;;;;;;;10.50;8.68;;;19.20;48.70;;;;;;5034614;28;20033;-77
2022/03/27 10:12:47;;;;;;;9.75;8.77;;;18.90;48.30;;;;;;5034797;28;20037;-79
2022/03/27 10:15:18;;;;;;;18.15;9.68;;;18.70;48.50;;;;;;5031939;28;20394;-78
2022/03/27 10:17:51;;;;;;;14.30;9.02;;;18.30;49.30;;;;;;5036980;28;20029;-79
2022/03/27 10:20:21;;;;;;;15.38;8.63;;;18.50;49.10;;;;;;5033699;28;20479;-77
2022/03/27 10:23:07;;;;;;;9.43;7.77;;;18.60;49.20;;;;;;5016259;28;20042;-77
2022/03/27 10:25:40;;;;;;;9.82;8.80;;;19.10;48.80;;;;;;5030962;28;20385;-78
2022/03/27 10:28:07;;;;;;;11.02;7.88;;;19.10;48.90;;;;;;5032617;28;20493;-82
2022/03/27 10:30:34;;;;;;;12.65;8.10;;;19.10;48.40;;;;;;5030736;28;20041;-78
2022/03/27 10:33:02;;;;;;;14.38;9.68;;;18.80;49.40;;;;;;5028559;28;20038;-78
2022/03/27 10:35:38;;;;;;;11.93;8.95;;;19.00;48.90;;;;;;5035375;28;20033;-78
2022/03/27 10:38:32;;;;;;;12.88;8.40;;;18.70;49.50;;;;;;5027376;28;20030;-78
2022/03/27 10:41:24;;;;;;;15.30;8.68;;;19.00;49.90;;;;;;5013997;28;20041;-80
2022/03/27 10:44:22;;;;;;;10.77;8.25;;;19.30;48.20;;;;;;5036342;28;20052;-76
2022/03/27 10:47:10;;;;;;;13.45;8.95;;;19.30;48.70;;;;;;5029168;28;20050;-79
2022/03/27 10:49:36;;;;;;;9.27;8.15;;;19.00;48.60;;;;;;5030018;28;20029;-79
2022/03/27 10:52:06;;;;;;;11.68;8.38;;;18.60;48.90;;;;;;5000892;28;20040;-79
2022/03/27 10:55:07;;;;;;;13.82;8.80;;;18.40;48.90;;;;;;5034869;28;20038;-78
2022/03/27 10:57:37;;;;;;;13.82;7.88;;;18.50;49.30;;;;;;5026622;28;20486;-81
2022/03/27 11:00:08;;;;;;;16.48;9.45;;;18.40;49.60;;;;;;5034585;28;20510;-79
2022/03/27 11:02:45;;;;;;;16.70;8.60;;;18.40;49.30;;;;;;5027416;28;20030;-87
2022/03/27 11:05:34;;;;;;;8.48;7.32;;;18.60;49.60;;;;;;5017333;28;20048;-79
2022/03/27 11:08:16;;;;;;;10.40;6.57;;;18.80;48.30;;;;;;5033717;28;20034;-82
2022/03/27 11:10:45;;;;;;;12.95;8.25;;;19.00;48.10;;;;;;5033774;28;20475;-78
2022/03/27 11:13:27;;;;;;;9.73;7.47;;;19.10;47.90;;;;;;5034184;28;20060;-79
2022/03/27 11:16:11;;;;;;;6.93;5.50;;;19.20;47.90;;;;;;5028480;28;20041;-80
2022/03/27 11:18:46;;;;;;;9.00;7.05;;;19.00;46.60;;;;;;5036736;28;20030;-80
2022/03/27 11:21:14;;;;;;;9.50;6.35;;;19.40;48.50;;;;;;5033199;28;20040;-79
2022/03/27 11:23:42;;;;;;;10.77;8.20;;;19.80;46.60;;;;;;5017754;28;20038;-80
2022/03/27 11:26:20;;;;;;;5.32;4.82;;;19.80;47.30;;;;;;5031219;28;20041;-78
2022/03/27 11:28:50;;;;;;;11.43;7.25;;;19.60;45.50;;;;;;5033589;28;20036;-80
2022/03/27 11:31:29;;;;;;;11.73;8.23;;;19.50;47.40;;;;;;5032009;28;20394;-79
2022/03/27 11:34:14;;;;;;;10.77;8.20;;;19.20;47.90;;;;;;5035100;28;20033;-80
2022/03/27 11:36:42;;;;;;;14.63;8.82;;;19.10;48.30;;;;;;5031862;28;20281;-80
2022/03/27 11:39:11;;;;;;;13.27;8.40;;;19.40;48.80;;;;;;5032263;28;20045;-80
2022/03/27 11:41:44;;;;;;;9.25;7.40;;;19.60;48.00;;;;;;5031210;28;20030;-81
2022/03/27 11:44:17;;;;;;;12.85;7.38;;;19.80;47.90;;;;;;4998992;28;20041;-80
2022/03/27 11:46:52;;;;;;;8.77;7.15;;;19.90;47.10;;;;;;5030753;28;20435;-80
2022/03/27 11:49:20;;;;;;;10.00;7.70;;;20.10;47.00;;;;;;5036024;28;20040;-79
2022/03/27 11:51:46;;;;;;;11.05;7.90;;;20.10;47.00;;;;;;5031771;28;20471;-80
2022/03/27 11:54:22;;;;;;;9.15;8.20;;;19.70;47.50;;;;;;5029320;28;20029;-80
2022/03/27 11:56:56;;;;;;;12.05;8.45;;;19.80;47.70;;;;;;5034272;28;20043;-79
2022/03/27 11:59:26;;;;;;;13.02;8.00;;;19.90;47.00;;;;;;5023936;28;20037;-81
2022/03/27 12:01:54;;;;;;;15.20;8.68;;;19.70;47.10;;;;;;5029169;28;20029;-79
2022/03/27 12:04:21;;;;;;;13.27;8.52;;;19.60;48.60;;;;;;5032491;28;20029;-79
2022/03/27 12:07:00;;;;;;;12.35;8.85;;;19.60;47.80;;;;;;5036632;28;20052;-80
2022/03/27 12:09:31;;;;;;;8.93;7.43;;;19.70;47.80;;;;;;5026953;28;20037;-79
2022/03/27 12:12:10;;;;;;;9.48;6.80;;;19.80;47.70;;;;;;5026957;28;20037;-79
2022/03/27 12:14:51;;;;;;;9.27;7.82;;;19.80;47.60;;;;;;5038010;28;20034;-81
2022/03/27 12:17:18;;;;;;;8.73;7.18;;;20.10;47.30;;;;;;5030278;28;20040;-80
2022/03/27 12:20:05;;;;;;;10.18;8.45;;;20.00;47.00;;;;;;5015432;28;20033;-79
2022/03/27 12:22:51;;;;;;;11.82;7.38;;;19.90;47.00;;;;;;5032945;28;20037;-79
2022/03/27 12:25:23;;;;;;;9.48;7.68;;;20.10;47.40;;;;;;5034211;28;21095;-80
2022/03/27 12:30:47;;;;;;;7.45;6.15;;;19.70;47.30;;;;;;5036005;28;20033;-78
2022/03/27 12:33:14;;;;;;;16.05;7.55;;;19.60;47.50;;;;;;5031442;28;20041;-79
2022/03/27 12:35:40;;;;;;;11.55;7.70;;;19.70;47.40;;;;;;5014999;28;20080;-80
2022/03/27 12:38:06;;;;;;;11.68;6.90;;;19.50;47.00;;;;;;5028836;28;20047;-81
2022/03/27 12:40:44;;;;;;;12.50;8.13;;;19.80;46.40;;;;;;5032747;28;20037;-78
2022/03/27 12:43:12;;;;;;;8.93;6.75;;;19.80;46.40;;;;;;5027680;28;20030;-79
2022/03/27 12:45:42;;;;;;;10.18;7.32;;;19.80;47.40;;;;;;5010927;28;20398;-82
2022/03/27 12:48:23;;;;;;;11.15;7.18;;;19.80;47.30;;;;;;5026891;28;20032;-81
2022/03/27 12:50:51;;;;;;;11.68;7.45;;;20.00;47.20;;;;;;5027389;28;20094;-81
2022/03/27 12:53:20;;;;;;;9.20;6.95;;;20.20;46.80;;;;;;5026609;28;20036;-81
2022/03/27 12:55:49;;;;;;;9.70;8.10;;;20.60;46.90;;;;;;5028783;28;20025;-79
2022/03/27 12:58:20;;;;;;;8.15;7.35;;;20.40;46.10;;;;;;5031718;28;20368;-80
2022/03/27 13:01:05;;;;;;;9.85;8.20;;;20.30;46.30;;;;;;5025324;28;20057;-86
2022/03/27 13:03:32;;;;;;;9.45;6.93;;;20.10;46.40;;;;;;5027307;28;20026;-82
2022/03/27 13:05:58;;;;;;;10.77;8.90;;;20.30;46.90;;;;;;5028165;28;20457;-81